Aviation Digital Data Service (ADDS)

Output produced by METARs form (0659 UTC 20 March 2019)
found at http://www.aviationweather.gov/metar/data/
 
METAR text: VMMC 200630Z 14005KT 8000 FEW010 SCT025 24/22 Q1011 NOSIG
Conditions at: VMMC (MACAO/MACAU , MO) observed 0630 UTC 20 March 2019
Temperature: 24.0°C (75°F)
Dewpoint: 22.0°C (72°F) [RH = 89%]
Pressure (altimeter): 29.85 inches Hg (1011.0 mb)
Winds: from the SE (140 degrees) at 6 MPH (5 knots; 2.6 m/s)
Visibility: 5 miles ( 8 km)
Ceiling: at least 12,000 feet AGL
Clouds: few clouds at 1000 feet AGL
scattered clouds at 2500 feet AGL
Weather: no significant weather observed at this time

METAR text: VMMC 200600Z 14005KT 6000 FEW010 SCT022 24/22 Q1011 NOSIG
Conditions at: VMMC (MACAO/MACAU , MO) observed 0600 UTC 20 March 2019
Temperature: 24.0°C (75°F)
Dewpoint: 22.0°C (72°F) [RH = 89%]
Pressure (altimeter): 29.85 inches Hg (1011.0 mb)
Winds: from the SE (140 degrees) at 6 MPH (5 knots; 2.6 m/s)
Visibility: 4 miles ( 6 km)
Ceiling: at least 12,000 feet AGL
Clouds: few clouds at 1000 feet AGL
scattered clouds at 2200 feet AGL
Weather: no significant weather observed at this time

METAR text: VMMC 200530Z 14004KT 4500 BR FEW010 SCT022 24/22 Q1012 NOSIG
Conditions at: VMMC (MACAO/MACAU , MO) observed 0530 UTC 20 March 2019
Temperature: 24.0°C (75°F)
Dewpoint: 22.0°C (72°F) [RH = 89%]
Pressure (altimeter): 29.88 inches Hg (1012.0 mb)
Winds: from the SE (140 degrees) at 5 MPH (4 knots; 2.1 m/s)
Visibility: 2.80 miles (4.51 km)
Ceiling: at least 12,000 feet AGL
Clouds: few clouds at 1000 feet AGL
scattered clouds at 2200 feet AGL
Weather: BR  (mist)

METAR text: VMMC 200500Z 12004KT 100V170 4500 BR FEW010 SCT022 24/22 Q1013 NOSIG
Conditions at: VMMC (MACAO/MACAU , MO) observed 0500 UTC 20 March 2019
Temperature: 24.0°C (75°F)
Dewpoint: 22.0°C (72°F) [RH = 89%]
Pressure (altimeter): 29.91 inches Hg (1013.0 mb)
Winds: from the ESE (120 degrees) at 5 MPH (4 knots; 2.1 m/s)
Visibility: 2.80 miles (4.51 km)
Ceiling: at least 12,000 feet AGL
Clouds: few clouds at 1000 feet AGL
scattered clouds at 2200 feet AGL
Weather: BR  (mist)

METAR text: VMMC 200430Z 13006KT 4000 BR FEW010 SCT022 24/22 Q1013 NOSIG
Conditions at: VMMC (MACAO/MACAU , MO) observed 0430 UTC 20 March 2019
Temperature: 24.0°C (75°F)
Dewpoint: 22.0°C (72°F) [RH = 89%]
Pressure (altimeter): 29.91 inches Hg (1013.0 mb)
Winds: from the SE (130 degrees) at 7 MPH (6 knots; 3.1 m/s)
Visibility: 2.49 miles (4.01 km)
Ceiling: at least 12,000 feet AGL
Clouds: few clouds at 1000 feet AGL
scattered clouds at 2200 feet AGL
Weather: BR  (mist)

METAR text: VMMC 200400Z 13007KT 4200 BR FEW010 SCT022 24/22 Q1013 NOSIG
Conditions at: VMMC (MACAO/MACAU , MO) observed 0400 UTC 20 March 2019
Temperature: 24.0°C (75°F)
Dewpoint: 22.0°C (72°F) [RH = 89%]
Pressure (altimeter): 29.91 inches Hg (1013.0 mb)
Winds: from the SE (130 degrees) at 8 MPH (7 knots; 3.6 m/s)
Visibility: 2.61 miles (4.20 km)
Ceiling: at least 12,000 feet AGL
Clouds: few clouds at 1000 feet AGL
scattered clouds at 2200 feet AGL
Weather: BR  (mist)

METAR text: VMMC 200330Z 12006KT 4000 BR FEW010 SCT022 23/22 Q1014 NOSIG
Conditions at: VMMC (MACAO/MACAU , MO) observed 0330 UTC 20 March 2019
Temperature: 23.0°C (73°F)
Dewpoint: 22.0°C (72°F) [RH = 94%]
Pressure (altimeter): 29.94 inches Hg (1014.0 mb)
Winds: from the ESE (120 degrees) at 7 MPH (6 knots; 3.1 m/s)
Visibility: 2.49 miles (4.01 km)
Ceiling: at least 12,000 feet AGL
Clouds: few clouds at 1000 feet AGL
scattered clouds at 2200 feet AGL
Weather: BR  (mist)

METAR text: VMMC 200300Z 13006KT 4000 BR FEW010 SCT020 BKN035 23/22 Q1014 NOSIG
Conditions at: VMMC (MACAO/MACAU , MO) observed 0300 UTC 20 March 2019
Temperature: 23.0°C (73°F)
Dewpoint: 22.0°C (72°F) [RH = 94%]
Pressure (altimeter): 29.94 inches Hg (1014.0 mb)
Winds: from the SE (130 degrees) at 7 MPH (6 knots; 3.1 m/s)
Visibility: 2.49 miles (4.01 km)
Ceiling: 3500 feet AGL
Clouds: few clouds at 1000 feet AGL
scattered clouds at 2000 feet AGL
broken clouds at 3500 feet AGL
Weather: BR  (mist)

METAR text: VMMC 200230Z 12006KT 3800 BR FEW009 SCT020 BKN035 23/21 Q1014 NOSIG
Conditions at: VMMC (MACAO/MACAU , MO) observed 0230 UTC 20 March 2019
Temperature: 23.0°C (73°F)
Dewpoint: 21.0°C (70°F) [RH = 89%]
Pressure (altimeter): 29.94 inches Hg (1014.0 mb)
Winds: from the ESE (120 degrees) at 7 MPH (6 knots; 3.1 m/s)
Visibility: 2.36 miles (3.80 km)
Ceiling: 3500 feet AGL
Clouds: few clouds at 900 feet AGL
scattered clouds at 2000 feet AGL
broken clouds at 3500 feet AGL
Weather: BR  (mist)

METAR text: VMMC 200200Z 13007KT 3800 BR FEW008 SCT018 BKN035 23/21 Q1014 NOSIG
Conditions at: VMMC (MACAO/MACAU , MO) observed 0200 UTC 20 March 2019
Temperature: 23.0°C (73°F)
Dewpoint: 21.0°C (70°F) [RH = 89%]
Pressure (altimeter): 29.94 inches Hg (1014.0 mb)
Winds: from the SE (130 degrees) at 8 MPH (7 knots; 3.6 m/s)
Visibility: 2.36 miles (3.80 km)
Ceiling: 3500 feet AGL
Clouds: few clouds at 800 feet AGL
scattered clouds at 1800 feet AGL
broken clouds at 3500 feet AGL
Weather: BR  (mist)

METAR text: VMMC 200130Z 13009KT 3800 BR FEW008 SCT018 BKN035 23/21 Q1014 NOSIG
Conditions at: VMMC (MACAO/MACAU , MO) observed 0130 UTC 20 March 2019
Temperature: 23.0°C (73°F)
Dewpoint: 21.0°C (70°F) [RH = 89%]
Pressure (altimeter): 29.94 inches Hg (1014.0 mb)
Winds: from the SE (130 degrees) at 10 MPH (9 knots; 4.6 m/s)
Visibility: 2.36 miles (3.80 km)
Ceiling: 3500 feet AGL
Clouds: few clouds at 800 feet AGL
scattered clouds at 1800 feet AGL
broken clouds at 3500 feet AGL
Weather: BR  (mist)

METAR text: VMMC 200100Z 13008KT 3600 BR FEW008 SCT020 23/22 Q1014 NOSIG
Conditions at: VMMC (MACAO/MACAU , MO) observed 0100 UTC 20 March 2019
Temperature: 23.0°C (73°F)
Dewpoint: 22.0°C (72°F) [RH = 94%]
Pressure (altimeter): 29.94 inches Hg (1014.0 mb)
Winds: from the SE (130 degrees) at 9 MPH (8 knots; 4.1 m/s)
Visibility: 2.24 miles (3.60 km)
Ceiling: at least 12,000 feet AGL
Clouds: few clouds at 800 feet AGL
scattered clouds at 2000 feet AGL
Weather: BR  (mist)

METAR text: VMMC 200030Z 13008KT 3400 BR FEW006 SCT016 22/21 Q1014 NOSIG
Conditions at: VMMC (MACAO/MACAU , MO) observed 0030 UTC 20 March 2019
Temperature: 22.0°C (72°F)
Dewpoint: 21.0°C (70°F) [RH = 94%]
Pressure (altimeter): 29.94 inches Hg (1014.0 mb)
Winds: from the SE (130 degrees) at 9 MPH (8 knots; 4.1 m/s)
Visibility: 2.11 miles (3.40 km)
Ceiling: at least 12,000 feet AGL
Clouds: few clouds at 600 feet AGL
scattered clouds at 1600 feet AGL
Weather: BR  (mist)

METAR text: VMMC 200000Z 13006KT 3200 BR FEW006 SCT016 22/21 Q1013 NOSIG
Conditions at: VMMC (MACAO/MACAU , MO) observed 0000 UTC 20 March 2019
Temperature: 22.0°C (72°F)
Dewpoint: 21.0°C (70°F) [RH = 94%]
Pressure (altimeter): 29.91 inches Hg (1013.0 mb)
Winds: from the SE (130 degrees) at 7 MPH (6 knots; 3.1 m/s)
Visibility: 1.99 miles (3.20 km)
Ceiling: at least 12,000 feet AGL
Clouds: few clouds at 600 feet AGL
scattered clouds at 1600 feet AGL
Weather: BR  (mist)

METAR text: VMMC 192330Z 13006KT 3200 BR FEW006 SCT016 22/21 Q1013 NOSIG
Conditions at: VMMC (MACAO/MACAU , MO) observed 2330 UTC 19 March 2019
Temperature: 22.0°C (72°F)
Dewpoint: 21.0°C (70°F) [RH = 94%]
Pressure (altimeter): 29.91 inches Hg (1013.0 mb)
Winds: from the SE (130 degrees) at 7 MPH (6 knots; 3.1 m/s)
Visibility: 1.99 miles (3.20 km)
Ceiling: at least 12,000 feet AGL
Clouds: few clouds at 600 feet AGL
scattered clouds at 1600 feet AGL
Weather: BR  (mist)

METAR text: VMMC 192300Z 12003KT 3500 BR FEW005 SCT015 BKN035 22/21 Q1013 TEMPO 2800 BR
Conditions at: VMMC (MACAO/MACAU , MO) observed 2300 UTC 19 March 2019
Temperature: 22.0°C (72°F)
Dewpoint: 21.0°C (70°F) [RH = 94%]
Pressure (altimeter): 29.91 inches Hg (1013.0 mb)
Winds: from the ESE (120 degrees) at 3 MPH (3 knots; 1.5 m/s)
Visibility: 2.17 miles (3.49 km)
Ceiling: 3500 feet AGL
Clouds: few clouds at 500 feet AGL
scattered clouds at 1500 feet AGL
broken clouds at 3500 feet AGL
Weather: BR  (mist)

METAR text: VMMC 192230Z VRB01KT 5000 BR FEW006 SCT018 22/21 Q1013 NOSIG
Conditions at: VMMC (MACAO/MACAU , MO) observed 2230 UTC 19 March 2019
Temperature: 22.0°C (72°F)
Dewpoint: 21.0°C (70°F) [RH = 94%]
Pressure (altimeter): 29.91 inches Hg (1013.0 mb)
Winds: variable direction winds at 1 MPH (1 knots; 0.5 m/s)
Visibility: 3 miles ( 5 km)
Ceiling: at least 12,000 feet AGL
Clouds: few clouds at 600 feet AGL
scattered clouds at 1800 feet AGL
Weather: BR  (mist)

METAR text: VMMC 192200Z VRB01KT 5000 BR FEW008 SCT018 22/21 Q1012 NOSIG
Conditions at: VMMC (MACAO/MACAU , MO) observed 2200 UTC 19 March 2019
Temperature: 22.0°C (72°F)
Dewpoint: 21.0°C (70°F) [RH = 94%]
Pressure (altimeter): 29.88 inches Hg (1012.0 mb)
Winds: variable direction winds at 1 MPH (1 knots; 0.5 m/s)
Visibility: 3 miles ( 5 km)
Ceiling: at least 12,000 feet AGL
Clouds: few clouds at 800 feet AGL
scattered clouds at 1800 feet AGL
Weather: BR  (mist)

METAR text: VMMC 192130Z 15003KT 100V170 5000 BR FEW006 SCT018 22/21 Q1012 NOSIG
Conditions at: VMMC (MACAO/MACAU , MO) observed 2130 UTC 19 March 2019
Temperature: 22.0°C (72°F)
Dewpoint: 21.0°C (70°F) [RH = 94%]
Pressure (altimeter): 29.88 inches Hg (1012.0 mb)
Winds: from the SSE (150 degrees) at 3 MPH (3 knots; 1.5 m/s)
Visibility: 3 miles ( 5 km)
Ceiling: at least 12,000 feet AGL
Clouds: few clouds at 600 feet AGL
scattered clouds at 1800 feet AGL
Weather: BR  (mist)

METAR text: VMMC 192100Z 12005KT 5000 BR FEW008 SCT018 22/21 Q1012 NOSIG
Conditions at: VMMC (MACAO/MACAU , MO) observed 2100 UTC 19 March 2019
Temperature: 22.0°C (72°F)
Dewpoint: 21.0°C (70°F) [RH = 94%]
Pressure (altimeter): 29.88 inches Hg (1012.0 mb)
Winds: from the ESE (120 degrees) at 6 MPH (5 knots; 2.6 m/s)
Visibility: 3 miles ( 5 km)
Ceiling: at least 12,000 feet AGL
Clouds: few clouds at 800 feet AGL
scattered clouds at 1800 feet AGL
Weather: BR  (mist)

METAR text: VMMC 192030Z 11003KT 060V140 5000 BR FEW008 SCT018 22/21 Q1012 NOSIG
Conditions at: VMMC (MACAO/MACAU , MO) observed 2030 UTC 19 March 2019
Temperature: 22.0°C (72°F)
Dewpoint: 21.0°C (70°F) [RH = 94%]
Pressure (altimeter): 29.88 inches Hg (1012.0 mb)
Winds: from the ESE (110 degrees) at 3 MPH (3 knots; 1.5 m/s)
Visibility: 3 miles ( 5 km)
Ceiling: at least 12,000 feet AGL
Clouds: few clouds at 800 feet AGL
scattered clouds at 1800 feet AGL
Weather: BR  (mist)

METAR text: VMMC 192000Z 11005KT 5000 BR FEW005 SCT018 22/21 Q1012 NOSIG
Conditions at: VMMC (MACAO/MACAU , MO) observed 2000 UTC 19 March 2019
Temperature: 22.0°C (72°F)
Dewpoint: 21.0°C (70°F) [RH = 94%]
Pressure (altimeter): 29.88 inches Hg (1012.0 mb)
Winds: from the ESE (110 degrees) at 6 MPH (5 knots; 2.6 m/s)
Visibility: 3 miles ( 5 km)
Ceiling: at least 12,000 feet AGL
Clouds: few clouds at 500 feet AGL
scattered clouds at 1800 feet AGL
Weather: BR  (mist)

METAR text: VMMC 191930Z 11003KT 080V160 5000 BR FEW008 SCT018 22/21 Q1012 NOSIG
Conditions at: VMMC (MACAO/MACAU , MO) observed 1930 UTC 19 March 2019
Temperature: 22.0°C (72°F)
Dewpoint: 21.0°C (70°F) [RH = 94%]
Pressure (altimeter): 29.88 inches Hg (1012.0 mb)
Winds: from the ESE (110 degrees) at 3 MPH (3 knots; 1.5 m/s)
Visibility: 3 miles ( 5 km)
Ceiling: at least 12,000 feet AGL
Clouds: few clouds at 800 feet AGL
scattered clouds at 1800 feet AGL
Weather: BR  (mist)

METAR text: VMMC 191900Z 11006KT 5000 BR FEW008 SCT018 22/21 Q1013 NOSIG
Conditions at: VMMC (MACAO/MACAU , MO) observed 1900 UTC 19 March 2019
Temperature: 22.0°C (72°F)
Dewpoint: 21.0°C (70°F) [RH = 94%]
Pressure (altimeter): 29.91 inches Hg (1013.0 mb)
Winds: from the ESE (110 degrees) at 7 MPH (6 knots; 3.1 m/s)
Visibility: 3 miles ( 5 km)
Ceiling: at least 12,000 feet AGL
Clouds: few clouds at 800 feet AGL
scattered clouds at 1800 feet AGL
Weather: BR  (mist)

METAR text: VMMC 191830Z 12007KT 100V160 5000 BR FEW008 SCT018 22/21 Q1013 NOSIG
Conditions at: VMMC (MACAO/MACAU , MO) observed 1830 UTC 19 March 2019
Temperature: 22.0°C (72°F)
Dewpoint: 21.0°C (70°F) [RH = 94%]
Pressure (altimeter): 29.91 inches Hg (1013.0 mb)
Winds: from the ESE (120 degrees) at 8 MPH (7 knots; 3.6 m/s)
Visibility: 3 miles ( 5 km)
Ceiling: at least 12,000 feet AGL
Clouds: few clouds at 800 feet AGL
scattered clouds at 1800 feet AGL
Weather: BR  (mist)

METAR text: VMMC 191800Z 13008KT 5000 BR FEW006 SCT018 22/21 Q1013 NOSIG
Conditions at: VMMC (MACAO/MACAU , MO) observed 1800 UTC 19 March 2019
Temperature: 22.0°C (72°F)
Dewpoint: 21.0°C (70°F) [RH = 94%]
Pressure (altimeter): 29.91 inches Hg (1013.0 mb)
Winds: from the SE (130 degrees) at 9 MPH (8 knots; 4.1 m/s)
Visibility: 3 miles ( 5 km)
Ceiling: at least 12,000 feet AGL
Clouds: few clouds at 600 feet AGL
scattered clouds at 1800 feet AGL
Weather: BR  (mist)

METAR text: VMMC 191730Z 12008KT 5000 BR FEW008 SCT020 22/21 Q1013 NOSIG
Conditions at: VMMC (MACAO/MACAU , MO) observed 1730 UTC 19 March 2019
Temperature: 22.0°C (72°F)
Dewpoint: 21.0°C (70°F) [RH = 94%]
Pressure (altimeter): 29.91 inches Hg (1013.0 mb)
Winds: from the ESE (120 degrees) at 9 MPH (8 knots; 4.1 m/s)
Visibility: 3 miles ( 5 km)
Ceiling: at least 12,000 feet AGL
Clouds: few clouds at 800 feet AGL
scattered clouds at 2000 feet AGL
Weather: BR  (mist)

METAR text: VMMC 191700Z 11005KT 4000 BR FEW008 SCT020 21/21 Q1013 NOSIG
Conditions at: VMMC (MACAO/MACAU , MO) observed 1700 UTC 19 March 2019
Temperature: 21.0°C (70°F)
Dewpoint: 21.0°C (70°F) [RH = 100%]
Pressure (altimeter): 29.91 inches Hg (1013.0 mb)
Winds: from the ESE (110 degrees) at 6 MPH (5 knots; 2.6 m/s)
Visibility: 2.49 miles (4.01 km)
Ceiling: at least 12,000 feet AGL
Clouds: few clouds at 800 feet AGL
scattered clouds at 2000 feet AGL
Weather: BR  (mist)

METAR text: VMMC 191630Z 10003KT 060V150 4800 BR FEW010 SCT020 22/21 Q1014 NOSIG
Conditions at: VMMC (MACAO/MACAU , MO) observed 1630 UTC 19 March 2019
Temperature: 22.0°C (72°F)
Dewpoint: 21.0°C (70°F) [RH = 94%]
Pressure (altimeter): 29.94 inches Hg (1014.0 mb)
Winds: from the E (100 degrees) at 3 MPH (3 knots; 1.5 m/s)
Visibility: 2.98 miles (4.80 km)
Ceiling: at least 12,000 feet AGL
Clouds: few clouds at 1000 feet AGL
scattered clouds at 2000 feet AGL
Weather: BR  (mist)

METAR text: VMMC 191600Z 11006KT 4500 BR FEW010 SCT020 22/21 Q1014 NOSIG
Conditions at: VMMC (MACAO/MACAU , MO) observed 1600 UTC 19 March 2019
Temperature: 22.0°C (72°F)
Dewpoint: 21.0°C (70°F) [RH = 94%]
Pressure (altimeter): 29.94 inches Hg (1014.0 mb)
Winds: from the ESE (110 degrees) at 7 MPH (6 knots; 3.1 m/s)
Visibility: 2.80 miles (4.51 km)
Ceiling: at least 12,000 feet AGL
Clouds: few clouds at 1000 feet AGL
scattered clouds at 2000 feet AGL
Weather: BR  (mist)

METAR text: VMMC 191530Z 11003KT 060V160 4500 BR FEW006 SCT018 22/21 Q1014 NOSIG
Conditions at: VMMC (MACAO/MACAU , MO) observed 1530 UTC 19 March 2019
Temperature: 22.0°C (72°F)
Dewpoint: 21.0°C (70°F) [RH = 94%]
Pressure (altimeter): 29.94 inches Hg (1014.0 mb)
Winds: from the ESE (110 degrees) at 3 MPH (3 knots; 1.5 m/s)
Visibility: 2.80 miles (4.51 km)
Ceiling: at least 12,000 feet AGL
Clouds: few clouds at 600 feet AGL
scattered clouds at 1800 feet AGL
Weather: BR  (mist)

METAR text: VMMC 191500Z 11003KT 070V140 4500 BR FEW006 SCT018 22/21 Q1015 NOSIG
Conditions at: VMMC (MACAO/MACAU , MO) observed 1500 UTC 19 March 2019
Temperature: 22.0°C (72°F)
Dewpoint: 21.0°C (70°F) [RH = 94%]
Pressure (altimeter): 29.97 inches Hg (1015.0 mb)
Winds: from the ESE (110 degrees) at 3 MPH (3 knots; 1.5 m/s)
Visibility: 2.80 miles (4.51 km)
Ceiling: at least 12,000 feet AGL
Clouds: few clouds at 600 feet AGL
scattered clouds at 1800 feet AGL
Weather: BR  (mist)

METAR text: VMMC 191430Z 13005KT 4500 BR FEW008 SCT023 22/21 Q1015 NOSIG
Conditions at: VMMC (MACAO/MACAU , MO) observed 1430 UTC 19 March 2019
Temperature: 22.0°C (72°F)
Dewpoint: 21.0°C (70°F) [RH = 94%]
Pressure (altimeter): 29.97 inches Hg (1015.0 mb)
Winds: from the SE (130 degrees) at 6 MPH (5 knots; 2.6 m/s)
Visibility: 2.80 miles (4.51 km)
Ceiling: at least 12,000 feet AGL
Clouds: few clouds at 800 feet AGL
scattered clouds at 2300 feet AGL
Weather: BR  (mist)

METAR text: VMMC 191400Z 13005KT 4800 BR FEW010 SCT023 22/22 Q1015 NOSIG
Conditions at: VMMC (MACAO/MACAU , MO) observed 1400 UTC 19 March 2019
Temperature: 22.0°C (72°F)
Dewpoint: 22.0°C (72°F) [RH = 100%]
Pressure (altimeter): 29.97 inches Hg (1015.0 mb)
Winds: from the SE (130 degrees) at 6 MPH (5 knots; 2.6 m/s)
Visibility: 2.98 miles (4.80 km)
Ceiling: at least 12,000 feet AGL
Clouds: few clouds at 1000 feet AGL
scattered clouds at 2300 feet AGL
Weather: BR  (mist)

METAR text: VMMC 191330Z 12005KT 4800 BR FEW010 SCT023 22/22 Q1015 NOSIG
Conditions at: VMMC (MACAO/MACAU , MO) observed 1330 UTC 19 March 2019
Temperature: 22.0°C (72°F)
Dewpoint: 22.0°C (72°F) [RH = 100%]
Pressure (altimeter): 29.97 inches Hg (1015.0 mb)
Winds: from the ESE (120 degrees) at 6 MPH (5 knots; 2.6 m/s)
Visibility: 2.98 miles (4.80 km)
Ceiling: at least 12,000 feet AGL
Clouds: few clouds at 1000 feet AGL
scattered clouds at 2300 feet AGL
Weather: BR  (mist)

METAR text: VMMC 191300Z 13005KT 6000 FEW010 SCT023 22/22 Q1014 TEMPO 4000 BR
Conditions at: VMMC (MACAO/MACAU , MO) observed 1300 UTC 19 March 2019
Temperature: 22.0°C (72°F)
Dewpoint: 22.0°C (72°F) [RH = 100%]
Pressure (altimeter): 29.94 inches Hg (1014.0 mb)
Winds: from the SE (130 degrees) at 6 MPH (5 knots; 2.6 m/s)
Visibility: 4 miles ( 6 km)
Ceiling: at least 12,000 feet AGL
Clouds: few clouds at 1000 feet AGL
scattered clouds at 2300 feet AGL
Weather: no significant weather observed at this time

METAR text: VMMC 191230Z 14004KT 6000 FEW023 22/22 Q1014 NOSIG
Conditions at: VMMC (MACAO/MACAU , MO) observed 1230 UTC 19 March 2019
Temperature: 22.0°C (72°F)
Dewpoint: 22.0°C (72°F) [RH = 100%]
Pressure (altimeter): 29.94 inches Hg (1014.0 mb)
Winds: from the SE (140 degrees) at 5 MPH (4 knots; 2.1 m/s)
Visibility: 4 miles ( 6 km)
Ceiling: at least 12,000 feet AGL
Clouds: few clouds at 2300 feet AGL
Weather: no significant weather observed at this time

METAR text: VMMC 191200Z 15004KT 6000 FEW023 22/22 Q1014 NOSIG
Conditions at: VMMC (MACAO/MACAU , MO) observed 1200 UTC 19 March 2019
Temperature: 22.0°C (72°F)
Dewpoint: 22.0°C (72°F) [RH = 100%]
Pressure (altimeter): 29.94 inches Hg (1014.0 mb)
Winds: from the SSE (150 degrees) at 5 MPH (4 knots; 2.1 m/s)
Visibility: 4 miles ( 6 km)
Ceiling: at least 12,000 feet AGL
Clouds: few clouds at 2300 feet AGL
Weather: no significant weather observed at this time

METAR text: VMMC 191130Z 15008KT 6000 FEW018 22/22 Q1013 NOSIG
Conditions at: VMMC (MACAO/MACAU , MO) observed 1130 UTC 19 March 2019
Temperature: 22.0°C (72°F)
Dewpoint: 22.0°C (72°F) [RH = 100%]
Pressure (altimeter): 29.91 inches Hg (1013.0 mb)
Winds: from the SSE (150 degrees) at 9 MPH (8 knots; 4.1 m/s)
Visibility: 4 miles ( 6 km)
Ceiling: at least 12,000 feet AGL
Clouds: few clouds at 1800 feet AGL
Weather: no significant weather observed at this time

METAR text: VMMC 191100Z 14008KT 6000 FEW018 22/22 Q1013 NOSIG
Conditions at: VMMC (MACAO/MACAU , MO) observed 1100 UTC 19 March 2019
Temperature: 22.0°C (72°F)
Dewpoint: 22.0°C (72°F) [RH = 100%]
Pressure (altimeter): 29.91 inches Hg (1013.0 mb)
Winds: from the SE (140 degrees) at 9 MPH (8 knots; 4.1 m/s)
Visibility: 4 miles ( 6 km)
Ceiling: at least 12,000 feet AGL
Clouds: few clouds at 1800 feet AGL
Weather: no significant weather observed at this time

METAR text: VMMC 191030Z 13008KT 6000 FEW018 22/21 Q1012 TEMPO 4000 BR
Conditions at: VMMC (MACAO/MACAU , MO) observed 1030 UTC 19 March 2019
Temperature: 22.0°C (72°F)
Dewpoint: 21.0°C (70°F) [RH = 94%]
Pressure (altimeter): 29.88 inches Hg (1012.0 mb)
Winds: from the SE (130 degrees) at 9 MPH (8 knots; 4.1 m/s)
Visibility: 4 miles ( 6 km)
Ceiling: at least 12,000 feet AGL
Clouds: few clouds at 1800 feet AGL
Weather: no significant weather observed at this time

METAR text: VMMC 191000Z 12008KT 7000 FEW018 23/21 Q1012 NOSIG
Conditions at: VMMC (MACAO/MACAU , MO) observed 1000 UTC 19 March 2019
Temperature: 23.0°C (73°F)
Dewpoint: 21.0°C (70°F) [RH = 89%]
Pressure (altimeter): 29.88 inches Hg (1012.0 mb)
Winds: from the ESE (120 degrees) at 9 MPH (8 knots; 4.1 m/s)
Visibility: 4 miles ( 7 km)
Ceiling: at least 12,000 feet AGL
Clouds: few clouds at 1800 feet AGL
Weather: no significant weather observed at this time

METAR text: VMMC 190930Z 12006KT 7000 FEW018 23/21 Q1012 NOSIG
Conditions at: VMMC (MACAO/MACAU , MO) observed 0930 UTC 19 March 2019
Temperature: 23.0°C (73°F)
Dewpoint: 21.0°C (70°F) [RH = 89%]
Pressure (altimeter): 29.88 inches Hg (1012.0 mb)
Winds: from the ESE (120 degrees) at 7 MPH (6 knots; 3.1 m/s)
Visibility: 4 miles ( 7 km)
Ceiling: at least 12,000 feet AGL
Clouds: few clouds at 1800 feet AGL
Weather: no significant weather observed at this time

METAR text: VMMC 190900Z 13007KT 7000 FEW018 23/21 Q1012 NOSIG
Conditions at: VMMC (MACAO/MACAU , MO) observed 0900 UTC 19 March 2019
Temperature: 23.0°C (73°F)
Dewpoint: 21.0°C (70°F) [RH = 89%]
Pressure (altimeter): 29.88 inches Hg (1012.0 mb)
Winds: from the SE (130 degrees) at 8 MPH (7 knots; 3.6 m/s)
Visibility: 4 miles ( 7 km)
Ceiling: at least 12,000 feet AGL
Clouds: few clouds at 1800 feet AGL
Weather: no significant weather observed at this time

METAR text: VMMC 190830Z 14006KT 7000 FEW015 24/22 Q1012 NOSIG
Conditions at: VMMC (MACAO/MACAU , MO) observed 0830 UTC 19 March 2019
Temperature: 24.0°C (75°F)
Dewpoint: 22.0°C (72°F) [RH = 89%]
Pressure (altimeter): 29.88 inches Hg (1012.0 mb)
Winds: from the SE (140 degrees) at 7 MPH (6 knots; 3.1 m/s)
Visibility: 4 miles ( 7 km)
Ceiling: at least 12,000 feet AGL
Clouds: few clouds at 1500 feet AGL
Weather: no significant weather observed at this time

METAR text: VMMC 190800Z 13005KT 7000 FEW015 24/22 Q1012 NOSIG
Conditions at: VMMC (MACAO/MACAU , MO) observed 0800 UTC 19 March 2019
Temperature: 24.0°C (75°F)
Dewpoint: 22.0°C (72°F) [RH = 89%]
Pressure (altimeter): 29.88 inches Hg (1012.0 mb)
Winds: from the SE (130 degrees) at 6 MPH (5 knots; 2.6 m/s)
Visibility: 4 miles ( 7 km)
Ceiling: at least 12,000 feet AGL
Clouds: few clouds at 1500 feet AGL
Weather: no significant weather observed at this time

METAR text: VMMC 190730Z 12004KT 090V150 7000 FEW015 24/22 Q1013 NOSIG
Conditions at: VMMC (MACAO/MACAU , MO) observed 0730 UTC 19 March 2019
Temperature: 24.0°C (75°F)
Dewpoint: 22.0°C (72°F) [RH = 89%]
Pressure (altimeter): 29.91 inches Hg (1013.0 mb)
Winds: from the ESE (120 degrees) at 5 MPH (4 knots; 2.1 m/s)
Visibility: 4 miles ( 7 km)
Ceiling: at least 12,000 feet AGL
Clouds: few clouds at 1500 feet AGL
Weather: no significant weather observed at this time

METAR text: VMMC 190700Z 14006KT 7000 FEW015 24/22 Q1013 NOSIG
Conditions at: VMMC (MACAO/MACAU , MO) observed 0700 UTC 19 March 2019
Temperature: 24.0°C (75°F)
Dewpoint: 22.0°C (72°F) [RH = 89%]
Pressure (altimeter): 29.91 inches Hg (1013.0 mb)
Winds: from the SE (140 degrees) at 7 MPH (6 knots; 3.1 m/s)
Visibility: 4 miles ( 7 km)
Ceiling: at least 12,000 feet AGL
Clouds: few clouds at 1500 feet AGL
Weather: no significant weather observed at this time

METAR text: VMMC 190630Z 13005KT 7000 FEW015 24/21 Q1013 NOSIG
Conditions at: VMMC (MACAO/MACAU , MO) observed 0630 UTC 19 March 2019
Temperature: 24.0°C (75°F)
Dewpoint: 21.0°C (70°F) [RH = 83%]
Pressure (altimeter): 29.91 inches Hg (1013.0 mb)
Winds: from the SE (130 degrees) at 6 MPH (5 knots; 2.6 m/s)
Visibility: 4 miles ( 7 km)
Ceiling: at least 12,000 feet AGL
Clouds: few clouds at 1500 feet AGL
Weather: no significant weather observed at this time

METAR text: VMMC 190600Z 14006KT 7000 FEW015 24/21 Q1014 NOSIG
Conditions at: VMMC (MACAO/MACAU , MO) observed 0600 UTC 19 March 2019
Temperature: 24.0°C (75°F)
Dewpoint: 21.0°C (70°F) [RH = 83%]
Pressure (altimeter): 29.94 inches Hg (1014.0 mb)
Winds: from the SE (140 degrees) at 7 MPH (6 knots; 3.1 m/s)
Visibility: 4 miles ( 7 km)
Ceiling: at least 12,000 feet AGL
Clouds: few clouds at 1500 feet AGL
Weather: no significant weather observed at this time

METAR text: VMMC 190530Z 15007KT 7000 NSC 24/21 Q1014 NOSIG
Conditions at: VMMC (MACAO/MACAU , MO) observed 0530 UTC 19 March 2019
Temperature: 24.0°C (75°F)
Dewpoint: 21.0°C (70°F) [RH = 83%]
Pressure (altimeter): 29.94 inches Hg (1014.0 mb)
Winds: from the SSE (150 degrees) at 8 MPH (7 knots; 3.6 m/s)
Visibility: 4 miles ( 7 km)
Ceiling: at least 12,000 feet AGL
Clouds: sky clear below 12,000 feet AGL
Weather: no significant weather observed at this time

METAR text: VMMC 190500Z 13005KT 7000 NSC 24/21 Q1015 NOSIG
Conditions at: VMMC (MACAO/MACAU , MO) observed 0500 UTC 19 March 2019
Temperature: 24.0°C (75°F)
Dewpoint: 21.0°C (70°F) [RH = 83%]
Pressure (altimeter): 29.97 inches Hg (1015.0 mb)
Winds: from the SE (130 degrees) at 6 MPH (5 knots; 2.6 m/s)
Visibility: 4 miles ( 7 km)
Ceiling: at least 12,000 feet AGL
Clouds: sky clear below 12,000 feet AGL
Weather: no significant weather observed at this time

METAR text: VMMC 190430Z 13003KT 100V160 7000 NSC 24/21 Q1015 NOSIG
Conditions at: VMMC (MACAO/MACAU , MO) observed 0430 UTC 19 March 2019
Temperature: 24.0°C (75°F)
Dewpoint: 21.0°C (70°F) [RH = 83%]
Pressure (altimeter): 29.97 inches Hg (1015.0 mb)
Winds: from the SE (130 degrees) at 3 MPH (3 knots; 1.5 m/s)
Visibility: 4 miles ( 7 km)
Ceiling: at least 12,000 feet AGL
Clouds: sky clear below 12,000 feet AGL
Weather: no significant weather observed at this time

METAR text: VMMC 190400Z 12003KT 090V170 6000 FEW025 24/21 Q1015 NOSIG
Conditions at: VMMC (MACAO/MACAU , MO) observed 0400 UTC 19 March 2019
Temperature: 24.0°C (75°F)
Dewpoint: 21.0°C (70°F) [RH = 83%]
Pressure (altimeter): 29.97 inches Hg (1015.0 mb)
Winds: from the ESE (120 degrees) at 3 MPH (3 knots; 1.5 m/s)
Visibility: 4 miles ( 6 km)
Ceiling: at least 12,000 feet AGL
Clouds: few clouds at 2500 feet AGL
Weather: no significant weather observed at this time

METAR text: VMMC 190330Z VRB03KT 6000 FEW025 23/20 Q1016 NOSIG
Conditions at: VMMC (MACAO/MACAU , MO) observed 0330 UTC 19 March 2019
Temperature: 23.0°C (73°F)
Dewpoint: 20.0°C (68°F) [RH = 83%]
Pressure (altimeter): 30.00 inches Hg (1016.0 mb)
Winds: variable direction winds at 3 MPH (3 knots; 1.5 m/s)
Visibility: 4 miles ( 6 km)
Ceiling: at least 12,000 feet AGL
Clouds: few clouds at 2500 feet AGL
Weather: no significant weather observed at this time

METAR text: VMMC 190300Z VRB02KT 4800 BR FEW025 23/21 Q1016 NOSIG
Conditions at: VMMC (MACAO/MACAU , MO) observed 0300 UTC 19 March 2019
Temperature: 23.0°C (73°F)
Dewpoint: 21.0°C (70°F) [RH = 89%]
Pressure (altimeter): 30.00 inches Hg (1016.0 mb)
Winds: variable direction winds at 2 MPH (2 knots; 1.0 m/s)
Visibility: 2.98 miles (4.80 km)
Ceiling: at least 12,000 feet AGL
Clouds: few clouds at 2500 feet AGL
Weather: BR  (mist)

METAR text: VMMC 190230Z VRB01KT 4500 BR FEW025 23/20 Q1017 NOSIG
Conditions at: VMMC (MACAO/MACAU , MO) observed 0230 UTC 19 March 2019
Temperature: 23.0°C (73°F)
Dewpoint: 20.0°C (68°F) [RH = 83%]
Pressure (altimeter): 30.03 inches Hg (1017.0 mb)
Winds: variable direction winds at 1 MPH (1 knots; 0.5 m/s)
Visibility: 2.80 miles (4.51 km)
Ceiling: at least 12,000 feet AGL
Clouds: few clouds at 2500 feet AGL
Weather: BR  (mist)

METAR text: VMMC 190200Z VRB02KT 3800 BR FEW025 23/20 Q1017 NOSIG
Conditions at: VMMC (MACAO/MACAU , MO) observed 0200 UTC 19 March 2019
Temperature: 23.0°C (73°F)
Dewpoint: 20.0°C (68°F) [RH = 83%]
Pressure (altimeter): 30.03 inches Hg (1017.0 mb)
Winds: variable direction winds at 2 MPH (2 knots; 1.0 m/s)
Visibility: 2.36 miles (3.80 km)
Ceiling: at least 12,000 feet AGL
Clouds: few clouds at 2500 feet AGL
Weather: BR  (mist)

METAR text: VMMC 190130Z 03003KT 350V080 4800 BR FEW025 22/20 Q1016 NOSIG
Conditions at: VMMC (MACAO/MACAU , MO) observed 0130 UTC 19 March 2019
Temperature: 22.0°C (72°F)
Dewpoint: 20.0°C (68°F) [RH = 88%]
Pressure (altimeter): 30.00 inches Hg (1016.0 mb)
Winds: from the NNE (30 degrees) at 3 MPH (3 knots; 1.5 m/s)
Visibility: 2.98 miles (4.80 km)
Ceiling: at least 12,000 feet AGL
Clouds: few clouds at 2500 feet AGL
Weather: BR  (mist)

METAR text: VMMC 190100Z 01001KT 4800 BR FEW025 22/20 Q1016 NOSIG
Conditions at: VMMC (MACAO/MACAU , MO) observed 0100 UTC 19 March 2019
Temperature: 22.0°C (72°F)
Dewpoint: 20.0°C (68°F) [RH = 88%]
Pressure (altimeter): 30.00 inches Hg (1016.0 mb)
Winds: from the N (10 degrees) at 1 MPH (1 knots; 0.5 m/s)
Visibility: 2.98 miles (4.80 km)
Ceiling: at least 12,000 feet AGL
Clouds: few clouds at 2500 feet AGL
Weather: BR  (mist)

METAR text: VMMC 190030Z VRB02KT 3500 BR FEW025 22/20 Q1016 NOSIG
Conditions at: VMMC (MACAO/MACAU , MO) observed 0030 UTC 19 March 2019
Temperature: 22.0°C (72°F)
Dewpoint: 20.0°C (68°F) [RH = 88%]
Pressure (altimeter): 30.00 inches Hg (1016.0 mb)
Winds: variable direction winds at 2 MPH (2 knots; 1.0 m/s)
Visibility: 2.17 miles (3.49 km)
Ceiling: at least 12,000 feet AGL
Clouds: few clouds at 2500 feet AGL
Weather: BR  (mist)

METAR text: VMMC 190000Z 30003KT 2600 BR FEW025 21/20 Q1016 NOSIG
Conditions at: VMMC (MACAO/MACAU , MO) observed 0000 UTC 19 March 2019
Temperature: 21.0°C (70°F)
Dewpoint: 20.0°C (68°F) [RH = 94%]
Pressure (altimeter): 30.00 inches Hg (1016.0 mb)
Winds: from the WNW (300 degrees) at 3 MPH (3 knots; 1.5 m/s)
Visibility: 1.62 miles (2.61 km)
Ceiling: at least 12,000 feet AGL
Clouds: few clouds at 2500 feet AGL
Weather: BR  (mist)

METAR text: VMMC 182330Z 28003KT 250V310 2400 BR FEW025 20/19 Q1016 NOSIG
Conditions at: VMMC (MACAO/MACAU , MO) observed 2330 UTC 18 March 2019
Temperature: 20.0°C (68°F)
Dewpoint: 19.0°C (66°F) [RH = 94%]
Pressure (altimeter): 30.00 inches Hg (1016.0 mb)
Winds: from the W (280 degrees) at 3 MPH (3 knots; 1.5 m/s)
Visibility: 1.49 miles (2.40 km)
Ceiling: at least 12,000 feet AGL
Clouds: few clouds at 2500 feet AGL
Weather: BR  (mist)

METAR text: VMMC 182300Z 27003KT 2500 BR FEW025 20/19 Q1015 NOSIG
Conditions at: VMMC (MACAO/MACAU , MO) observed 2300 UTC 18 March 2019
Temperature: 20.0°C (68°F)
Dewpoint: 19.0°C (66°F) [RH = 94%]
Pressure (altimeter): 29.97 inches Hg (1015.0 mb)
Winds: from the W (270 degrees) at 3 MPH (3 knots; 1.5 m/s)
Visibility: 1.55 miles (2.49 km)
Ceiling: at least 12,000 feet AGL
Clouds: few clouds at 2500 feet AGL
Weather: BR  (mist)

METAR text: VMMC 182230Z 26003KT 2600 BR FEW025 20/19 Q1015 NOSIG
Conditions at: VMMC (MACAO/MACAU , MO) observed 2230 UTC 18 March 2019
Temperature: 20.0°C (68°F)
Dewpoint: 19.0°C (66°F) [RH = 94%]
Pressure (altimeter): 29.97 inches Hg (1015.0 mb)
Winds: from the W (260 degrees) at 3 MPH (3 knots; 1.5 m/s)
Visibility: 1.62 miles (2.61 km)
Ceiling: at least 12,000 feet AGL
Clouds: few clouds at 2500 feet AGL
Weather: BR  (mist)

METAR text: VMMC 182200Z 26003KT 3600 BR FEW025 20/19 Q1014 TEMPO 2500 BR
Conditions at: VMMC (MACAO/MACAU , MO) observed 2200 UTC 18 March 2019
Temperature: 20.0°C (68°F)
Dewpoint: 19.0°C (66°F) [RH = 94%]
Pressure (altimeter): 29.94 inches Hg (1014.0 mb)
Winds: from the W (260 degrees) at 3 MPH (3 knots; 1.5 m/s)
Visibility: 2.24 miles (3.60 km)
Ceiling: at least 12,000 feet AGL
Clouds: few clouds at 2500 feet AGL
Weather: BR  (mist)

METAR text: VMMC 182130Z VRB02KT 3300 BR FEW025 20/19 Q1014 NOSIG
Conditions at: VMMC (MACAO/MACAU , MO) observed 2130 UTC 18 March 2019
Temperature: 20.0°C (68°F)
Dewpoint: 19.0°C (66°F) [RH = 94%]
Pressure (altimeter): 29.94 inches Hg (1014.0 mb)
Winds: variable direction winds at 2 MPH (2 knots; 1.0 m/s)
Visibility: 2.05 miles (3.30 km)
Ceiling: at least 12,000 feet AGL
Clouds: few clouds at 2500 feet AGL
Weather: BR  (mist)

METAR text: VMMC 182100Z 23002KT 3400 BR FEW025 20/19 Q1013 NOSIG
Conditions at: VMMC (MACAO/MACAU , MO) observed 2100 UTC 18 March 2019
Temperature: 20.0°C (68°F)
Dewpoint: 19.0°C (66°F) [RH = 94%]
Pressure (altimeter): 29.91 inches Hg (1013.0 mb)
Winds: from the SW (230 degrees) at 2 MPH (2 knots; 1.0 m/s)
Visibility: 2.11 miles (3.40 km)
Ceiling: at least 12,000 feet AGL
Clouds: few clouds at 2500 feet AGL
Weather: BR  (mist)

METAR text: VMMC 182030Z VRB02KT 4600 BR FEW025 20/20 Q1013 NOSIG
Conditions at: VMMC (MACAO/MACAU , MO) observed 2030 UTC 18 March 2019
Temperature: 20.0°C (68°F)
Dewpoint: 20.0°C (68°F) [RH = 100%]
Pressure (altimeter): 29.91 inches Hg (1013.0 mb)
Winds: variable direction winds at 2 MPH (2 knots; 1.0 m/s)
Visibility: 2.86 miles (4.60 km)
Ceiling: at least 12,000 feet AGL
Clouds: few clouds at 2500 feet AGL
Weather: BR  (mist)

METAR text: VMMC 182000Z 17002KT 5000 BR FEW025 20/19 Q1013 NOSIG
Conditions at: VMMC (MACAO/MACAU , MO) observed 2000 UTC 18 March 2019
Temperature: 20.0°C (68°F)
Dewpoint: 19.0°C (66°F) [RH = 94%]
Pressure (altimeter): 29.91 inches Hg (1013.0 mb)
Winds: from the S (170 degrees) at 2 MPH (2 knots; 1.0 m/s)
Visibility: 3 miles ( 5 km)
Ceiling: at least 12,000 feet AGL
Clouds: few clouds at 2500 feet AGL
Weather: BR  (mist)

METAR text: VMMC 181930Z 17004KT 5000 BR FEW025 20/19 Q1013 NOSIG
Conditions at: VMMC (MACAO/MACAU , MO) observed 1930 UTC 18 March 2019
Temperature: 20.0°C (68°F)
Dewpoint: 19.0°C (66°F) [RH = 94%]
Pressure (altimeter): 29.91 inches Hg (1013.0 mb)
Winds: from the S (170 degrees) at 5 MPH (4 knots; 2.1 m/s)
Visibility: 3 miles ( 5 km)
Ceiling: at least 12,000 feet AGL
Clouds: few clouds at 2500 feet AGL
Weather: BR  (mist)

METAR text: VMMC 181900Z 17005KT 6000 FEW025 20/19 Q1014 NOSIG
Conditions at: VMMC (MACAO/MACAU , MO) observed 1900 UTC 18 March 2019
Temperature: 20.0°C (68°F)
Dewpoint: 19.0°C (66°F) [RH = 94%]
Pressure (altimeter): 29.94 inches Hg (1014.0 mb)
Winds: from the S (170 degrees) at 6 MPH (5 knots; 2.6 m/s)
Visibility: 4 miles ( 6 km)
Ceiling: at least 12,000 feet AGL
Clouds: few clouds at 2500 feet AGL
Weather: no significant weather observed at this time

Forecast for: VMMC (MACAO/MACAU , MO)
Text: TAF VMMC 200500Z 2006/2112 15006KT 6000 FEW015
Forecast period: 0600 UTC 20 March 2019 to 1200 UTC 21 March 2019
Forecast type: FROM: standard forecast or significant change
Winds: from the SSE (150 degrees) at 7 MPH (6 knots; 3.1 m/s)
Visibility: 4 miles (6 km)
Ceiling: at least 12,000 feet AGL
Clouds: few clouds at 1500 feet AGL
Weather: no significant weather forecast for this period
Text: TEMPO 2006/2012 3500 BR
Forecast period: 0600 to 1200 UTC 20 March 2019
Forecast type: TEMPORARY: The following changes expected for less than half the time period
Visibility: 2.17 miles (3.49 km)
Ceiling: unknown
Clouds: missing
Weather: BR  (mist)
Text: TEMPO 2012/2018 2500 BR
Forecast period: 1200 to 1800 UTC 20 March 2019
Forecast type: TEMPORARY: The following changes expected for less than half the time period
Visibility: 1.55 miles (2.49 km)
Ceiling: unknown
Clouds: missing
Weather: BR  (mist)
Text: TEMPO 2018/2102 1400 BR
Forecast period: 1800 UTC 20 March 2019 to 0200 UTC 21 March 2019
Forecast type: TEMPORARY: The following changes expected for less than half the time period
Visibility: 0.87 miles (1.40 km)
Ceiling: unknown
Clouds: missing
Weather: BR  (mist)